createdAt,value
2022-12-06T00:01:24.263Z,102151.78
2022-12-06T00:03:56.868Z,102159.50
2022-12-06T00:06:27.615Z,102146.63
2022-12-06T00:08:56.421Z,102155.19
2022-12-06T00:11:26.673Z,102155.97
2022-12-06T00:13:55.743Z,102155.03
2022-12-06T00:16:24.598Z,102146.41
2022-12-06T00:18:53.007Z,102148.13
2022-12-06T00:21:25.890Z,102147.31
2022-12-06T00:23:56.161Z,102156.66
2022-12-06T00:26:25.505Z,102146.34
2022-12-06T00:28:55.287Z,102150.72
2022-12-06T00:31:25.732Z,102145.72
2022-12-06T00:33:53.508Z,102144.88
2022-12-06T00:36:23.556Z,102141.34
2022-12-06T00:38:51.966Z,102148.38
2022-12-06T00:41:24.956Z,102153.41
2022-12-06T00:43:53.820Z,102159.50
2022-12-06T00:46:27.371Z,102156.94
2022-12-06T00:48:56.357Z,102156.94
2022-12-06T00:51:25.429Z,102157.06
2022-12-06T00:53:53.594Z,102160.56
2022-12-06T00:56:21.245Z,102146.75
2022-12-06T00:58:48.950Z,102152.81
2022-12-06T01:01:21.993Z,102163.69
2022-12-06T01:03:52.420Z,102160.34
2022-12-06T01:06:22.976Z,102165.59
2022-12-06T01:08:50.940Z,102151.91
2022-12-06T01:11:18.957Z,102138.69
2022-12-06T01:13:46.590Z,102155.41
2022-12-06T01:16:19.606Z,102141.66
2022-12-06T01:18:47.789Z,102144.97
2022-12-06T01:21:18.273Z,102139.72
2022-12-06T01:23:48.366Z,102144.09
2022-12-06T01:26:19.257Z,102133.66
2022-12-06T01:28:46.983Z,102144.97
2022-12-06T01:31:15.063Z,102139.09
2022-12-06T01:33:43.060Z,102146.69
2022-12-06T01:36:23.591Z,102146.84
2022-12-06T01:38:56.807Z,102147.44
2022-12-06T01:41:26.020Z,102145.50
2022-12-06T01:43:54.508Z,102137.56
2022-12-06T01:46:44.437Z,102150.75
2022-12-06T01:49:14.705Z,102141.59
2022-12-06T01:51:47.239Z,102148.38
2022-12-06T01:54:17.159Z,102137.56
2022-12-06T01:56:45.314Z,102137.44
2022-12-06T01:59:13.684Z,102138.06
2022-12-06T02:01:41.734Z,102134.31
2022-12-06T02:04:10.113Z,102146.63
2022-12-06T02:06:40.014Z,102146.69
2022-12-06T02:09:09.979Z,102146.13
2022-12-06T02:11:37.544Z,102143.50
2022-12-06T02:14:09.650Z,102144.25
2022-12-06T02:16:40.179Z,102145.44
2022-12-06T02:19:25.168Z,102147.19
2022-12-06T02:22:08.491Z,102132.53
2022-12-06T02:24:48.538Z,102139.91
2022-12-06T02:27:38.929Z,102126.78
2022-12-06T02:30:10.934Z,102137.44
2022-12-06T02:32:41.113Z,102128.66
2022-12-06T02:35:33.155Z,102134.81
2022-12-06T02:38:12.651Z,102119.06
2022-12-06T02:40:55.235Z,102137.28
2022-12-06T02:43:29.215Z,102135.69
2022-12-06T02:46:00.576Z,102138.22
2022-12-06T02:48:28.405Z,102143.44
2022-12-06T02:51:01.152Z,102139.09
2022-12-06T02:53:31.720Z,102133.69
2022-12-06T02:55:59.961Z,102127.53
2022-12-06T02:58:27.739Z,102138.72
2022-12-06T03:01:02.407Z,102141.28
2022-12-06T03:03:54.320Z,102138.72
2022-12-06T03:06:46.902Z,102135.34
2022-12-06T03:09:28.525Z,102130.06
2022-12-06T03:12:07.713Z,102132.50
2022-12-06T03:14:58.423Z,102130.69
2022-12-06T03:17:40.968Z,102130.88
2022-12-06T03:20:12.082Z,102122.88
2022-12-06T03:22:45.816Z,102129.94
2022-12-06T03:25:14.888Z,102141.88
2022-12-06T03:27:44.092Z,102128.88
2022-12-06T03:30:14.703Z,102138.53
2022-12-06T03:32:46.872Z,102136.72
2022-12-06T03:35:18.954Z,102129.00
2022-12-06T03:37:52.061Z,102128.31
2022-12-06T03:40:28.063Z,102132.91
2022-12-06T03:42:56.271Z,102133.56
2022-12-06T03:45:32.212Z,102117.88
2022-12-06T03:48:07.113Z,102123.25
2022-12-06T03:50:43.937Z,102121.38
2022-12-06T03:53:11.521Z,102115.16
2022-12-06T03:55:39.217Z,102128.31
2022-12-06T03:58:06.772Z,102125.03
2022-12-06T04:00:34.237Z,102130.19
2022-12-06T04:03:01.675Z,102118.00
2022-12-06T04:05:29.180Z,102123.91
2022-12-06T04:07:58.021Z,102126.66
2022-12-06T04:10:25.609Z,102123.22
2022-12-06T04:13:01.960Z,102123.25
2022-12-06T04:15:32.076Z,102119.63
2022-12-06T04:18:11.512Z,102124.97
2022-12-06T04:21:02.395Z,102127.59
2022-12-06T04:23:31.423Z,102127.53
2022-12-06T04:25:59.376Z,102122.13
2022-12-06T04:28:44.270Z,102132.38
2022-12-06T04:31:29.715Z,102128.03
2022-12-06T04:34:14.784Z,102119.38
2022-12-06T04:36:59.495Z,102120.94
2022-12-06T04:39:27.767Z,102122.53
2022-12-06T04:42:13.535Z,102129.44
2022-12-06T04:44:41.173Z,102123.34
2022-12-06T04:47:09.604Z,102118.22
2022-12-06T04:49:38.705Z,102114.09
2022-12-06T04:52:07.926Z,102108.81
2022-12-06T04:54:36.087Z,102112.22
2022-12-06T04:57:03.892Z,102105.34
2022-12-06T04:59:31.385Z,102113.97
2022-12-06T05:01:58.944Z,102111.41
2022-12-06T05:04:26.549Z,102108.75
2022-12-06T05:06:54.073Z,102111.25
2022-12-06T05:09:21.689Z,102103.44
2022-12-06T05:11:49.296Z,102101.78
2022-12-06T05:14:16.886Z,102101.53
2022-12-06T05:16:44.382Z,102107.63
2022-12-06T05:19:14.371Z,102104.78
2022-12-06T05:21:42.239Z,102100.31
2022-12-06T05:24:09.912Z,102105.44
2022-12-06T05:26:37.418Z,102110.41
2022-12-06T05:29:04.980Z,102107.75
2022-12-06T05:31:32.616Z,102107.06
2022-12-06T05:34:00.149Z,102108.06
2022-12-06T05:36:28.491Z,102106.38
2022-12-06T05:38:57.211Z,102102.13
2022-12-06T05:41:25.631Z,102102.91
2022-12-06T05:43:53.280Z,102103.44
2022-12-06T05:46:20.828Z,102109.34
2022-12-06T05:48:48.325Z,102114.50
2022-12-06T05:51:15.818Z,102108.31
2022-12-06T05:53:43.298Z,102105.56
2022-12-06T05:56:13.595Z,102107.19
2022-12-06T05:58:41.629Z,102104.53
2022-12-06T06:01:10.031Z,102107.06
2022-12-06T06:03:42.413Z,102098.50
2022-12-06T06:06:13.205Z,102102.03
2022-12-06T06:08:40.783Z,102104.59
2022-12-06T06:11:08.416Z,102108.00
2022-12-06T06:13:35.911Z,102109.22
2022-12-06T06:16:03.359Z,102109.34
2022-12-06T06:18:30.899Z,102109.22
2022-12-06T06:21:01.149Z,102117.47
2022-12-06T06:23:29.757Z,102104.53
2022-12-06T06:25:57.576Z,102109.63
2022-12-06T06:28:25.812Z,102108.56
2022-12-06T06:30:53.336Z,102116.97
2022-12-06T06:33:21.240Z,102107.22
2022-12-06T06:35:48.911Z,102105.19
2022-12-06T06:38:16.377Z,102103.97
2022-12-06T06:40:43.878Z,102105.34
2022-12-06T06:43:20.524Z,102103.44
2022-12-06T06:46:02.559Z,102106.44
2022-12-06T06:48:33.424Z,102105.41
2022-12-06T06:51:05.655Z,102102.38
2022-12-06T06:53:33.351Z,102102.75
2022-12-06T06:56:01.020Z,102102.56
2022-12-06T06:58:28.584Z,102110.88
2022-12-06T07:00:58.447Z,102108.91
2022-12-06T07:03:27.490Z,102104.34
2022-12-06T07:05:58.386Z,102108.34
2022-12-06T07:08:27.588Z,102096.75
2022-12-06T07:10:55.148Z,102096.44
2022-12-06T07:13:24.604Z,102105.78
2022-12-06T07:15:53.105Z,102102.31
2022-12-06T07:18:21.019Z,102097.78
2022-12-06T07:20:49.587Z,102103.50
2022-12-06T07:23:17.266Z,102095.88
2022-12-06T07:25:44.728Z,102095.28
2022-12-06T07:28:12.257Z,102097.25
2022-12-06T07:30:39.789Z,102099.66
2022-12-06T07:33:07.356Z,102096.25
2022-12-06T07:36:10.296Z,102097.91
2022-12-06T07:38:22.406Z,102100.97
2022-12-06T07:41:04.512Z,102108.53
2022-12-06T07:43:49.840Z,102103.34
2022-12-06T07:46:17.489Z,102110.16
2022-12-06T07:48:45.101Z,102109.19
2022-12-06T07:51:12.605Z,102114.31
2022-12-06T07:53:40.098Z,102108.31
2022-12-06T07:56:09.102Z,102116.09
2022-12-06T07:58:36.626Z,102121.22
2022-12-06T08:01:05.462Z,102115.94
2022-12-06T08:03:33.079Z,102110.81
2022-12-06T08:06:00.887Z,102111.38
2022-12-06T08:08:29.276Z,102121.22
2022-12-06T08:11:00.620Z,102119.38
2022-12-06T08:13:28.958Z,102124.59
2022-12-06T08:15:57.242Z,102111.75
2022-12-06T08:18:25.611Z,102112.56
2022-12-06T08:20:53.356Z,102125.41
2022-12-06T08:23:21.081Z,102124.75
2022-12-06T08:25:48.549Z,102121.38
2022-12-06T08:28:16.070Z,102115.38
2022-12-06T08:30:43.603Z,102121.84
2022-12-06T08:33:11.097Z,102128.56
2022-12-06T08:35:38.592Z,102119.34
2022-12-06T08:38:06.144Z,102132.56
2022-12-06T08:40:33.750Z,102120.69
2022-12-06T08:43:01.226Z,102131.38
2022-12-06T08:45:28.757Z,102132.56
2022-12-06T08:47:56.313Z,102135.38
2022-12-06T08:50:23.837Z,102125.50
2022-12-06T08:52:51.372Z,102131.97
2022-12-06T08:55:18.934Z,102131.22
2022-12-06T08:57:46.524Z,102126.50
2022-12-06T09:00:14.814Z,102124.75
2022-12-06T09:02:42.978Z,102126.81
2022-12-06T09:05:10.673Z,102119.03
2022-12-06T09:07:38.181Z,102121.06
2022-12-06T09:10:06.503Z,102129.00
2022-12-06T09:12:34.024Z,102119.66
2022-12-06T09:15:01.591Z,102119.28
2022-12-06T09:17:29.090Z,102122.25
2022-12-06T09:19:59.613Z,102110.28
2022-12-06T09:22:31.465Z,102129.03
2022-12-06T09:24:58.973Z,102125.38
2022-12-06T09:27:26.599Z,102125.00
2022-12-06T09:29:54.335Z,102135.81
2022-12-06T09:32:21.861Z,102136.06
2022-12-06T09:34:49.435Z,102131.19
2022-12-06T09:37:16.910Z,102124.00
2022-12-06T09:39:51.168Z,102130.22
2022-12-06T09:42:21.426Z,102130.91
2022-12-06T09:45:09.611Z,102132.66
2022-12-06T09:47:42.794Z,102133.72
2022-12-06T09:50:53.646Z,102127.22
2022-12-06T09:53:38.497Z,102119.94
2022-12-06T09:56:18.152Z,102125.09
2022-12-06T09:59:12.191Z,102131.50
2022-12-06T10:02:03.188Z,102131.03
2022-12-06T10:05:08.226Z,102118.03
2022-12-06T10:07:42.575Z,102119.22
2022-12-06T10:10:23.432Z,102115.19
2022-12-06T10:13:00.510Z,102115.91
2022-12-06T10:15:45.057Z,102101.19
2022-12-06T10:18:33.733Z,102101.56
2022-12-06T10:21:17.933Z,102097.97
2022-12-06T10:24:00.100Z,102091.66
2022-12-06T10:26:41.049Z,102082.72
2022-12-06T10:29:25.815Z,102087.28
2022-12-06T10:31:58.531Z,102086.63
2022-12-06T10:34:50.818Z,102079.28
2022-12-06T10:37:38.036Z,102074.81
2022-12-06T10:40:26.769Z,102065.34
2022-12-06T10:43:01.599Z,102069.84
2022-12-06T10:46:24.037Z,102061.84
2022-12-06T10:49:20.865Z,102055.97
2022-12-06T10:52:01.562Z,102053.31
2022-12-06T10:54:42.755Z,102051.53
2022-12-06T10:57:21.668Z,102066.22
2022-12-06T11:00:15.824Z,102058.09
2022-12-06T11:02:57.827Z,102053.38
2022-12-06T11:05:29.138Z,102059.41
2022-12-06T11:08:04.517Z,102052.66
2022-12-06T11:10:34.981Z,102048.50
2022-12-06T11:13:28.816Z,102044.88
2022-12-06T11:16:19.538Z,102045.97
2022-12-06T11:18:49.437Z,102043.50
2022-12-06T11:21:49.420Z,102043.84
2022-12-06T11:24:21.673Z,102036.03
2022-12-06T11:27:02.763Z,102030.75
2022-12-06T11:29:30.976Z,102029.06
2022-12-06T11:32:02.823Z,102022.72
2022-12-06T11:34:43.724Z,102024.91
2022-12-06T11:37:17.897Z,102025.13
2022-12-06T11:39:46.457Z,102012.28
2022-12-06T11:42:19.020Z,102023.91
2022-12-06T11:44:55.796Z,102023.16
2022-12-06T11:47:24.202Z,102015.41
2022-12-06T11:49:55.690Z,102008.53
2022-12-06T11:52:31.478Z,102012.41
2022-12-06T11:55:03.413Z,102004.63
2022-12-06T11:57:38.417Z,102012.50
2022-12-06T12:00:38.901Z,102007.81
2022-12-06T12:03:28.894Z,101999.63
2022-12-06T12:06:18.192Z,101999.41
2022-12-06T12:08:58.613Z,102000.47
2022-12-06T12:11:30.474Z,101992.69
2022-12-06T12:14:04.291Z,102000.50
2022-12-06T12:16:38.655Z,102004.75
2022-12-06T12:19:59.046Z,101995.06
2022-12-06T12:22:29.426Z,101995.16
2022-12-06T12:25:19.260Z,101994.03
2022-12-06T12:27:49.027Z,101991.28
2022-12-06T12:30:16.642Z,101985.91
2022-12-06T12:32:45.745Z,101984.00
2022-12-06T12:35:22.274Z,101984.94
2022-12-06T12:37:53.365Z,101976.91
2022-12-06T12:40:31.689Z,101986.69
2022-12-06T12:43:02.011Z,101988.47
2022-12-06T12:45:30.114Z,101985.22
2022-12-06T12:48:03.296Z,101967.84
2022-12-06T12:50:33.437Z,101970.38
2022-12-06T12:53:01.330Z,101967.03
2022-12-06T12:55:32.084Z,101960.13
2022-12-06T12:58:01.161Z,101966.94
2022-12-06T13:00:48.902Z,101968.56
2022-12-06T13:06:36.557Z,101958.28
2022-12-06T13:09:06.720Z,101954.69
2022-12-06T13:11:44.096Z,101952.94
2022-12-06T13:14:21.579Z,101964.28
2022-12-06T13:16:53.494Z,101952.09
2022-12-06T13:19:25.250Z,101947.69
2022-12-06T13:21:53.757Z,101945.22
2022-12-06T13:24:32.120Z,101944.28
2022-12-06T13:27:04.067Z,101953.13
2022-12-06T13:29:47.874Z,101943.66
2022-12-06T13:32:19.556Z,101941.16
2022-12-06T13:34:54.238Z,101942.09
2022-12-06T13:37:30.451Z,101930.16
2022-12-06T13:39:59.111Z,101940.47
2022-12-06T13:42:39.183Z,101940.06
2022-12-06T13:45:27.581Z,101927.66
2022-12-06T13:47:55.164Z,101929.50
2022-12-06T13:50:23.137Z,101936.44
2022-12-06T13:52:50.693Z,101929.66
2022-12-06T13:55:28.417Z,101928.63
2022-12-06T13:57:57.840Z,101925.09
2022-12-06T14:00:49.191Z,101925.00
2022-12-06T14:03:22.180Z,101925.78
2022-12-06T14:06:15.444Z,101923.88
2022-12-06T14:08:43.586Z,101928.13
2022-12-06T14:11:13.900Z,101922.72
2022-12-06T14:14:08.814Z,101930.19
2022-12-06T14:16:53.345Z,101929.84
2022-12-06T14:19:31.033Z,101941.94
2022-12-06T14:22:04.159Z,101947.69
2022-12-06T14:24:36.153Z,101943.13
2022-12-06T14:27:25.213Z,101944.44
2022-12-06T14:30:05.112Z,101938.38
2022-12-06T14:32:59.865Z,101935.59
2022-12-06T14:35:35.579Z,101926.94
2022-12-06T14:38:25.001Z,101931.91
2022-12-06T14:41:10.631Z,101931.75
2022-12-06T14:43:38.800Z,101925.75
2022-12-06T14:46:09.491Z,101933.50
2022-12-06T14:48:51.546Z,101932.31
2022-12-06T14:51:36.243Z,101927.09
2022-12-06T14:54:28.658Z,101917.59
2022-12-06T14:56:56.452Z,101923.56
2022-12-06T15:00:03.483Z,101921.84
2022-12-06T15:02:26.135Z,101933.00
2022-12-06T15:04:53.632Z,101921.66
2022-12-06T15:07:50.556Z,101931.25
2022-12-06T15:10:32.300Z,101924.25
2022-12-06T15:13:15.483Z,101919.81
2022-12-06T15:15:46.173Z,101918.88
2022-12-06T15:18:32.990Z,101922.31
2022-12-06T15:21:00.704Z,101918.03
2022-12-06T15:23:35.484Z,101918.97
2022-12-06T15:26:04.381Z,101908.56
2022-12-06T15:28:31.915Z,101911.97
2022-12-06T15:30:59.931Z,101901.53
2022-12-06T15:33:27.772Z,101900.59
2022-12-06T15:35:55.620Z,101904.59
2022-12-06T15:38:23.196Z,101900.97
2022-12-06T15:40:52.737Z,101902.50
2022-12-06T15:43:25.962Z,101910.94
2022-12-06T15:45:54.336Z,101903.91
2022-12-06T15:48:22.994Z,101910.66
2022-12-06T15:50:50.572Z,101912.38
2022-12-06T15:53:21.946Z,101912.38
2022-12-06T15:55:49.587Z,101916.75
2022-12-06T15:58:17.108Z,101912.50
2022-12-06T16:00:45.696Z,101909.06
2022-12-06T16:03:13.295Z,101915.19
2022-12-06T16:05:41.578Z,101906.59
2022-12-06T16:08:09.322Z,101903.22
2022-12-06T16:11:10.115Z,101905.19
2022-12-06T16:13:24.488Z,101899.97
2022-12-06T16:15:53.610Z,101910.56
2022-12-06T16:18:21.461Z,101900.69
2022-12-06T16:20:49.219Z,101902.66
2022-12-06T16:26:25.224Z,101897.59
2022-12-06T16:28:52.691Z,101912.88
2022-12-06T16:31:20.268Z,101908.72
2022-12-06T16:33:48.014Z,101900.81
2022-12-06T16:36:29.755Z,101897.34
2022-12-06T16:39:02.022Z,101903.53
2022-12-06T16:41:31.122Z,101900.13
2022-12-06T16:43:59.356Z,101898.28
2022-12-06T16:46:31.632Z,101899.88
2022-12-06T16:49:36.729Z,101899.78
2022-12-06T16:51:50.985Z,101892.78
2022-12-06T16:54:18.900Z,101895.94
2022-12-06T16:56:46.879Z,101889.81
2022-12-06T16:59:16.616Z,101894.03
2022-12-06T17:01:53.079Z,101898.53
2022-12-06T17:04:20.813Z,101894.19
2022-12-06T17:06:48.485Z,101885.78
2022-12-06T17:09:16.930Z,101892.56
2022-12-06T17:12:02.349Z,101884.84
2022-12-06T17:14:30.676Z,101879.66
2022-12-06T17:17:03.690Z,101882.09
2022-12-06T17:19:32.115Z,101892.56
2022-12-06T17:22:02.068Z,101886.50
2022-12-06T17:24:29.760Z,101882.09
2022-12-06T17:26:58.860Z,101886.25
2022-12-06T17:29:26.848Z,101882.69
2022-12-06T17:31:54.468Z,101885.19
2022-12-06T17:34:23.035Z,101879.00
2022-12-06T17:36:50.780Z,101874.53
2022-12-06T17:39:20.871Z,101863.13
2022-12-06T17:42:05.726Z,101869.63
2022-12-06T17:44:33.996Z,101863.28
2022-12-06T17:47:02.002Z,101867.28
2022-12-06T17:49:30.209Z,101863.75
2022-12-06T17:51:58.503Z,101865.41
2022-12-06T17:54:26.004Z,101863.56
2022-12-06T17:56:55.925Z,101864.34
2022-12-06T17:59:26.599Z,101877.16
2022-12-06T18:02:15.093Z,101869.38
2022-12-06T18:04:44.306Z,101875.41
2022-12-06T18:07:13.417Z,101864.22
2022-12-06T18:09:41.615Z,101866.09
2022-12-06T18:12:10.796Z,101873.75
2022-12-06T18:14:38.544Z,101877.16
2022-12-06T18:17:06.459Z,101884.91
2022-12-06T18:19:34.463Z,101884.78
2022-12-06T18:22:02.009Z,101883.78
2022-12-06T18:24:35.239Z,101883.00
2022-12-06T18:27:03.476Z,101877.84
2022-12-06T18:29:31.130Z,101892.53
2022-12-06T18:31:58.890Z,101879.63
2022-12-06T18:34:26.455Z,101890.13
2022-12-06T18:36:54.020Z,101890.16
2022-12-06T18:39:24.923Z,101892.03
2022-12-06T18:41:54.470Z,101886.16
2022-12-06T18:44:22.745Z,101886.16
2022-12-06T18:46:50.278Z,101882.81
2022-12-06T18:49:17.923Z,101886.56
2022-12-06T18:51:45.447Z,101875.53
2022-12-06T18:54:14.563Z,101866.22
2022-12-06T18:56:42.605Z,101866.34
2022-12-06T18:59:12.598Z,101873.13
2022-12-06T19:01:41.537Z,101870.59
2022-12-06T19:04:11.388Z,101867.69
2022-12-06T19:06:39.350Z,101870.88
2022-12-06T19:09:12.790Z,101874.28
2022-12-06T19:11:42.607Z,101878.59
2022-12-06T19:14:10.244Z,101877.78
2022-12-06T19:16:49.077Z,101867.47
2022-12-06T19:19:23.525Z,101871.84
2022-12-06T19:21:53.225Z,101883.03
2022-12-06T19:24:23.561Z,101874.47
2022-12-06T19:26:52.629Z,101882.38
2022-12-06T19:29:20.730Z,101883.25
2022-12-06T19:31:48.599Z,101883.25
2022-12-06T19:34:27.162Z,101872.84
2022-12-06T19:36:56.884Z,101876.31
2022-12-06T19:39:25.547Z,101879.06
2022-12-06T19:42:10.726Z,101878.28
2022-12-06T19:44:38.282Z,101868.81
2022-12-06T19:47:06.146Z,101879.97
2022-12-06T19:49:33.723Z,101873.91
2022-12-06T19:52:02.030Z,101876.44
2022-12-06T19:54:31.564Z,101872.72
2022-12-06T19:57:00.460Z,101875.97
2022-12-06T19:59:30.911Z,101873.25
2022-12-06T20:01:59.403Z,101878.19
2022-12-06T20:04:30.119Z,101877.25
2022-12-06T20:06:58.224Z,101889.00
2022-12-06T20:09:28.259Z,101875.97
2022-12-06T20:12:03.396Z,101879.22
2022-12-06T20:14:37.166Z,101885.03
2022-12-06T20:17:07.030Z,101890.06
2022-12-06T20:19:34.946Z,101891.06
2022-12-06T20:22:02.608Z,101888.53
2022-12-06T20:24:30.493Z,101883.41
2022-12-06T20:26:58.071Z,101892.22
2022-12-06T20:29:27.011Z,101892.31
2022-12-06T20:31:57.841Z,101899.31
2022-12-06T20:34:25.984Z,101885.50
2022-12-06T20:36:53.567Z,101886.44
2022-12-06T20:39:27.410Z,101886.44
2022-12-06T20:41:55.325Z,101889.84
2022-12-06T20:44:23.289Z,101875.97
2022-12-06T20:46:51.349Z,101884.69
2022-12-06T20:49:18.990Z,101875.19
2022-12-06T20:51:52.431Z,101874.44
2022-12-06T20:54:21.092Z,101880.47
2022-12-06T20:56:51.492Z,101876.28
2022-12-06T20:59:19.473Z,101876.16
2022-12-06T21:01:47.289Z,101872.00
2022-12-06T21:04:15.754Z,101880.66
2022-12-06T21:06:43.738Z,101868.72
2022-12-06T21:09:11.308Z,101867.06
2022-12-06T21:11:39.392Z,101867.88
2022-12-06T21:14:07.093Z,101868.59
2022-12-06T21:16:38.122Z,101865.19
2022-12-06T21:19:13.545Z,101859.91
2022-12-06T21:21:44.774Z,101859.84
2022-12-06T21:24:15.129Z,101853.69
2022-12-06T21:26:42.847Z,101864.66
2022-12-06T21:29:17.706Z,101861.94
2022-12-06T21:31:45.416Z,101870.34
2022-12-06T21:34:15.555Z,101867.31
2022-12-06T21:36:43.830Z,101867.97
2022-12-06T21:39:15.551Z,101867.88
2022-12-06T21:41:43.216Z,101869.28
2022-12-06T21:44:10.722Z,101875.22
2022-12-06T21:46:38.380Z,101864.66
2022-12-06T21:49:06.197Z,101878.25
2022-12-06T21:51:33.882Z,101870.19
2022-12-06T21:54:01.497Z,101877.28
2022-12-06T21:56:31.367Z,101877.94
2022-12-06T21:59:01.229Z,101887.88
2022-12-06T22:01:30.035Z,101879.09
2022-12-06T22:04:03.099Z,101871.84
2022-12-06T22:06:31.394Z,101876.56
2022-12-06T22:09:05.680Z,101879.72
2022-12-06T22:11:34.177Z,101876.22
2022-12-06T22:14:02.536Z,101886.19
2022-12-06T22:16:30.530Z,101888.44
2022-12-06T22:18:59.503Z,101898.50
2022-12-06T22:21:30.439Z,101891.50
2022-12-06T22:23:59.338Z,101900.25
2022-12-06T22:26:30.789Z,101894.91
2022-12-06T22:29:00.298Z,101884.06
2022-12-06T22:31:29.873Z,101893.81
2022-12-06T22:33:58.829Z,101904.66
2022-12-06T22:36:26.831Z,101904.66
2022-12-06T22:38:57.131Z,101901.25
2022-12-06T22:41:25.697Z,101907.44
2022-12-06T22:43:55.223Z,101901.53
2022-12-06T22:46:23.679Z,101902.28
2022-12-06T22:48:51.365Z,101911.19
2022-12-06T22:51:28.079Z,101901.78
2022-12-06T22:53:59.377Z,101902.00
2022-12-06T22:56:27.477Z,101898.50
2022-12-06T22:58:56.072Z,101895.13
2022-12-06T23:01:26.283Z,101891.66
2022-12-06T23:03:54.828Z,101892.66
2022-12-06T23:06:25.463Z,101888.44
2022-12-06T23:08:53.823Z,101880.78
2022-12-06T23:11:24.430Z,101886.00
2022-12-06T23:13:52.174Z,101877.31
2022-12-06T23:16:22.288Z,101878.97
2022-12-06T23:18:50.480Z,101878.63
2022-12-06T23:21:26.623Z,101886.97
2022-12-06T23:24:02.434Z,101878.94
2022-12-06T23:26:44.369Z,101885.59
2022-12-06T23:29:12.231Z,101886.28
2022-12-06T23:31:42.166Z,101880.09
2022-12-06T23:34:16.933Z,101880.09
2022-12-06T23:36:45.046Z,101880.66
2022-12-06T23:39:13.488Z,101884.91
2022-12-06T23:41:41.350Z,101878.63
2022-12-06T23:44:10.963Z,101887.09
2022-12-06T23:46:40.333Z,101889.84
2022-12-06T23:49:08.928Z,101888.50
2022-12-06T23:51:38.664Z,101897.41
2022-12-06T23:54:08.599Z,101901.16
2022-12-06T23:56:39.948Z,101901.53
2022-12-06T23:59:09.432Z,101892.22
